sensor_id;sensor_type;location;lat;lon;timestamp;temperature;humidity
8994;DHT22;4532;50.886;4.700;2024-03-25T00:02:14;8.00;76.20
8994;DHT22;4532;50.886;4.700;2024-03-25T00:04:44;7.90;76.20
8994;DHT22;4532;50.886;4.700;2024-03-25T00:07:15;7.90;76.30
8994;DHT22;4532;50.886;4.700;2024-03-25T00:09:41;7.90;76.30
8994;DHT22;4532;50.886;4.700;2024-03-25T00:12:08;7.80;76.40
8994;DHT22;4532;50.886;4.700;2024-03-25T00:14:34;7.80;76.50
8994;DHT22;4532;50.886;4.700;2024-03-25T00:17:02;7.80;76.40
8994;DHT22;4532;50.886;4.700;2024-03-25T00:19:31;7.80;76.30
8994;DHT22;4532;50.886;4.700;2024-03-25T00:21:58;7.80;76.40
8994;DHT22;4532;50.886;4.700;2024-03-25T00:24:24;7.80;76.30
8994;DHT22;4532;50.886;4.700;2024-03-25T00:26:50;7.70;76.30
8994;DHT22;4532;50.886;4.700;2024-03-25T00:29:19;7.70;76.20
8994;DHT22;4532;50.886;4.700;2024-03-25T00:31:45;7.70;76.30
8994;DHT22;4532;50.886;4.700;2024-03-25T00:34:14;7.60;76.30
8994;DHT22;4532;50.886;4.700;2024-03-25T00:36:42;7.60;76.40
8994;DHT22;4532;50.886;4.700;2024-03-25T00:39:09;7.60;76.50
8994;DHT22;4532;50.886;4.700;2024-03-25T00:41:37;7.60;76.50
8994;DHT22;4532;50.886;4.700;2024-03-25T00:44:04;7.60;76.50
8994;DHT22;4532;50.886;4.700;2024-03-25T00:46:35;7.60;76.50
8994;DHT22;4532;50.886;4.700;2024-03-25T00:49:03;7.50;77.20
8994;DHT22;4532;50.886;4.700;2024-03-25T00:51:29;7.50;76.50
8994;DHT22;4532;50.886;4.700;2024-03-25T00:53:57;7.50;76.40
8994;DHT22;4532;50.886;4.700;2024-03-25T00:56:26;7.50;76.40
8994;DHT22;4532;50.886;4.700;2024-03-25T00:58:52;7.50;76.40
8994;DHT22;4532;50.886;4.700;2024-03-25T01:01:21;7.50;76.40
8994;DHT22;4532;50.886;4.700;2024-03-25T01:03:47;7.40;76.40
8994;DHT22;4532;50.886;4.700;2024-03-25T01:06:16;7.40;76.40
8994;DHT22;4532;50.886;4.700;2024-03-25T01:08:42;7.40;76.40
8994;DHT22;4532;50.886;4.700;2024-03-25T01:11:08;7.40;76.30
8994;DHT22;4532;50.886;4.700;2024-03-25T01:13:35;7.40;76.40
8994;DHT22;4532;50.886;4.700;2024-03-25T01:16:01;7.40;76.40
8994;DHT22;4532;50.886;4.700;2024-03-25T01:18:27;7.40;76.40
8994;DHT22;4532;50.886;4.700;2024-03-25T01:20:56;7.40;76.40
8994;DHT22;4532;50.886;4.700;2024-03-25T01:23:25;7.30;76.30
8994;DHT22;4532;50.886;4.700;2024-03-25T01:25:54;7.30;76.30
8994;DHT22;4532;50.886;4.700;2024-03-25T01:28:21;7.30;76.40
8994;DHT22;4532;50.886;4.700;2024-03-25T01:30:47;7.30;76.40
8994;DHT22;4532;50.886;4.700;2024-03-25T01:33:13;7.30;76.40
8994;DHT22;4532;50.886;4.700;2024-03-25T01:35:39;7.20;76.30
8994;DHT22;4532;50.886;4.700;2024-03-25T01:38:08;7.20;76.40
8994;DHT22;4532;50.886;4.700;2024-03-25T01:40:37;7.20;76.40
8994;DHT22;4532;50.886;4.700;2024-03-25T01:43:06;7.20;76.40
8994;DHT22;4532;50.886;4.700;2024-03-25T01:45:34;7.20;76.40
8994;DHT22;4532;50.886;4.700;2024-03-25T01:48:07;7.20;76.40
8994;DHT22;4532;50.886;4.700;2024-03-25T01:50:42;7.20;76.30
8994;DHT22;4532;50.886;4.700;2024-03-25T01:53:12;7.10;76.30
8994;DHT22;4532;50.886;4.700;2024-03-25T01:55:41;7.10;76.30
8994;DHT22;4532;50.886;4.700;2024-03-25T01:58:11;7.10;76.30
8994;DHT22;4532;50.886;4.700;2024-03-25T02:00:40;7.10;76.30
8994;DHT22;4532;50.886;4.700;2024-03-25T02:03:08;7.00;76.30
8994;DHT22;4532;50.886;4.700;2024-03-25T02:05:35;7.00;76.30
8994;DHT22;4532;50.886;4.700;2024-03-25T02:08:02;7.00;76.30
8994;DHT22;4532;50.886;4.700;2024-03-25T02:10:32;7.00;76.30
8994;DHT22;4532;50.886;4.700;2024-03-25T02:12:58;7.00;76.40
8994;DHT22;4532;50.886;4.700;2024-03-25T02:15:32;7.00;76.40
8994;DHT22;4532;50.886;4.700;2024-03-25T02:17:58;7.00;76.30
8994;DHT22;4532;50.886;4.700;2024-03-25T02:20:28;6.90;76.30
8994;DHT22;4532;50.886;4.700;2024-03-25T02:22:57;6.90;76.30
8994;DHT22;4532;50.886;4.700;2024-03-25T02:25:26;6.90;76.30
8994;DHT22;4532;50.886;4.700;2024-03-25T02:27:55;6.90;76.20
8994;DHT22;4532;50.886;4.700;2024-03-25T02:30:23;6.80;76.20
8994;DHT22;4532;50.886;4.700;2024-03-25T02:32:52;6.80;76.20
8994;DHT22;4532;50.886;4.700;2024-03-25T02:35:26;6.80;76.20
8994;DHT22;4532;50.886;4.700;2024-03-25T02:37:53;6.80;76.20
8994;DHT22;4532;50.886;4.700;2024-03-25T02:40:22;6.80;76.20
8994;DHT22;4532;50.886;4.700;2024-03-25T02:42:49;6.70;76.20
8994;DHT22;4532;50.886;4.700;2024-03-25T02:45:15;6.70;76.30
8994;DHT22;4532;50.886;4.700;2024-03-25T02:47:45;6.70;76.20
8994;DHT22;4532;50.886;4.700;2024-03-25T02:50:16;6.70;76.20
8994;DHT22;4532;50.886;4.700;2024-03-25T02:52:47;6.70;76.20
8994;DHT22;4532;50.886;4.700;2024-03-25T02:55:13;6.70;76.20
8994;DHT22;4532;50.886;4.700;2024-03-25T02:57:39;6.70;76.20
8994;DHT22;4532;50.886;4.700;2024-03-25T03:00:06;6.60;76.20
8994;DHT22;4532;50.886;4.700;2024-03-25T03:02:34;6.60;76.20
8994;DHT22;4532;50.886;4.700;2024-03-25T03:05:03;6.60;76.20
8994;DHT22;4532;50.886;4.700;2024-03-25T03:07:34;6.60;76.20
8994;DHT22;4532;50.886;4.700;2024-03-25T03:10:03;6.60;76.20
8994;DHT22;4532;50.886;4.700;2024-03-25T03:12:32;6.50;76.10
8994;DHT22;4532;50.886;4.700;2024-03-25T03:15:00;6.50;76.90
8994;DHT22;4532;50.886;4.700;2024-03-25T03:17:31;6.50;76.10
8994;DHT22;4532;50.886;4.700;2024-03-25T03:19:59;6.50;76.10
8994;DHT22;4532;50.886;4.700;2024-03-25T03:22:26;6.50;76.20
8994;DHT22;4532;50.886;4.700;2024-03-25T03:24:54;6.50;76.20
8994;DHT22;4532;50.886;4.700;2024-03-25T03:27:23;6.40;76.20
8994;DHT22;4532;50.886;4.700;2024-03-25T03:29:49;6.40;76.20
8994;DHT22;4532;50.886;4.700;2024-03-25T03:32:15;6.40;76.20
8994;DHT22;4532;50.886;4.700;2024-03-25T03:34:46;6.40;76.20
8994;DHT22;4532;50.886;4.700;2024-03-25T03:37:17;6.40;76.20
8994;DHT22;4532;50.886;4.700;2024-03-25T03:39:43;6.30;76.00
8994;DHT22;4532;50.886;4.700;2024-03-25T03:42:12;6.30;76.10
8994;DHT22;4532;50.886;4.700;2024-03-25T03:44:40;6.30;76.00
8994;DHT22;4532;50.886;4.700;2024-03-25T03:47:11;6.30;76.10
8994;DHT22;4532;50.886;4.700;2024-03-25T03:49:37;6.20;76.10
8994;DHT22;4532;50.886;4.700;2024-03-25T03:52:06;6.20;76.10
8994;DHT22;4532;50.886;4.700;2024-03-25T03:54:32;6.20;76.10
8994;DHT22;4532;50.886;4.700;2024-03-25T03:56:58;6.20;76.10
8994;DHT22;4532;50.886;4.700;2024-03-25T03:59:26;6.20;76.10
8994;DHT22;4532;50.886;4.700;2024-03-25T04:01:55;6.20;76.20
8994;DHT22;4532;50.886;4.700;2024-03-25T04:04:21;6.10;76.00
8994;DHT22;4532;50.886;4.700;2024-03-25T04:06:52;6.10;76.00
8994;DHT22;4532;50.886;4.700;2024-03-25T04:09:18;6.10;76.00
8994;DHT22;4532;50.886;4.700;2024-03-25T04:11:44;6.10;76.10
8994;DHT22;4532;50.886;4.700;2024-03-25T04:14:11;6.10;76.10
8994;DHT22;4532;50.886;4.700;2024-03-25T04:16:40;6.00;76.00
8994;DHT22;4532;50.886;4.700;2024-03-25T04:19:08;6.00;76.00
8994;DHT22;4532;50.886;4.700;2024-03-25T04:21:34;6.00;76.10
8994;DHT22;4532;50.886;4.700;2024-03-25T04:24:01;6.00;76.10
8994;DHT22;4532;50.886;4.700;2024-03-25T04:26:30;6.00;76.10
8994;DHT22;4532;50.886;4.700;2024-03-25T04:28:59;6.00;76.10
8994;DHT22;4532;50.886;4.700;2024-03-25T04:31:28;6.00;76.10
8994;DHT22;4532;50.886;4.700;2024-03-25T04:33:57;5.90;76.10
8994;DHT22;4532;50.886;4.700;2024-03-25T04:36:25;5.90;76.10
8994;DHT22;4532;50.886;4.700;2024-03-25T04:38:51;5.90;76.20
8994;DHT22;4532;50.886;4.700;2024-03-25T04:41:20;5.90;76.20
8994;DHT22;4532;50.886;4.700;2024-03-25T04:43:46;5.90;76.20
8994;DHT22;4532;50.886;4.700;2024-03-25T04:46:15;5.90;76.20
8994;DHT22;4532;50.886;4.700;2024-03-25T04:48:43;5.90;76.20
8994;DHT22;4532;50.886;4.700;2024-03-25T04:51:10;5.90;76.20
8994;DHT22;4532;50.886;4.700;2024-03-25T04:53:36;5.90;76.20
8994;DHT22;4532;50.886;4.700;2024-03-25T04:56:09;5.90;76.20
8994;DHT22;4532;50.886;4.700;2024-03-25T04:58:38;5.90;76.20
8994;DHT22;4532;50.886;4.700;2024-03-25T05:01:07;5.90;76.20
8994;DHT22;4532;50.886;4.700;2024-03-25T05:03:35;5.90;76.20
8994;DHT22;4532;50.886;4.700;2024-03-25T05:06:04;5.90;76.20
8994;DHT22;4532;50.886;4.700;2024-03-25T05:08:31;5.80;76.10
8994;DHT22;4532;50.886;4.700;2024-03-25T05:10:57;5.80;76.20
8994;DHT22;4532;50.886;4.700;2024-03-25T05:13:24;5.80;76.20
8994;DHT22;4532;50.886;4.700;2024-03-25T05:15:53;5.80;76.20
8994;DHT22;4532;50.886;4.700;2024-03-25T05:18:21;5.80;76.20
8994;DHT22;4532;50.886;4.700;2024-03-25T05:20:50;5.80;76.20
8994;DHT22;4532;50.886;4.700;2024-03-25T05:23:21;5.80;77.00
8994;DHT22;4532;50.886;4.700;2024-03-25T05:25:47;5.80;76.20
8994;DHT22;4532;50.886;4.700;2024-03-25T05:28:15;5.80;76.20
8994;DHT22;4532;50.886;4.700;2024-03-25T05:30:44;5.80;76.20
8994;DHT22;4532;50.886;4.700;2024-03-25T05:33:11;5.80;76.20
8994;DHT22;4532;50.886;4.700;2024-03-25T05:35:39;5.80;76.30
8994;DHT22;4532;50.886;4.700;2024-03-25T05:38:09;5.70;76.20
8994;DHT22;4532;50.886;4.700;2024-03-25T05:40:37;5.70;76.30
8994;DHT22;4532;50.886;4.700;2024-03-25T05:43:06;5.70;76.30
8994;DHT22;4532;50.886;4.700;2024-03-25T05:45:32;5.70;76.20
8994;DHT22;4532;50.886;4.700;2024-03-25T05:48:01;5.70;76.30
8994;DHT22;4532;50.886;4.700;2024-03-25T05:50:30;5.70;76.30
8994;DHT22;4532;50.886;4.700;2024-03-25T05:52:56;5.70;76.40
8994;DHT22;4532;50.886;4.700;2024-03-25T05:55:22;5.70;76.40
8994;DHT22;4532;50.886;4.700;2024-03-25T05:57:49;5.70;76.40
8994;DHT22;4532;50.886;4.700;2024-03-25T06:00:17;5.80;76.50
8994;DHT22;4532;50.886;4.700;2024-03-25T06:02:46;5.80;76.50
8994;DHT22;4532;50.886;4.700;2024-03-25T06:05:13;5.80;76.50
8994;DHT22;4532;50.886;4.700;2024-03-25T06:07:41;5.80;76.50
8994;DHT22;4532;50.886;4.700;2024-03-25T06:10:10;5.80;76.50
8994;DHT22;4532;50.886;4.700;2024-03-25T06:12:36;5.80;76.60
8994;DHT22;4532;50.886;4.700;2024-03-25T06:15:05;5.80;76.60
8994;DHT22;4532;50.886;4.700;2024-03-25T06:17:34;5.90;77.40
8994;DHT22;4532;50.886;4.700;2024-03-25T06:20:06;5.90;76.70
8994;DHT22;4532;50.886;4.700;2024-03-25T06:22:39;5.90;76.70
8994;DHT22;4532;50.886;4.700;2024-03-25T06:25:06;5.90;76.70
8994;DHT22;4532;50.886;4.700;2024-03-25T06:27:35;6.00;76.80
8994;DHT22;4532;50.886;4.700;2024-03-25T06:30:06;6.00;76.80
8994;DHT22;4532;50.886;4.700;2024-03-25T06:32:51;6.00;76.80
8994;DHT22;4532;50.886;4.700;2024-03-25T06:35:41;6.10;76.90
8994;DHT22;4532;50.886;4.700;2024-03-25T06:38:13;6.10;76.90
8994;DHT22;4532;50.886;4.700;2024-03-25T06:40:40;6.10;77.00
8994;DHT22;4532;50.886;4.700;2024-03-25T06:43:08;6.20;77.10
8994;DHT22;4532;50.886;4.700;2024-03-25T06:45:37;6.20;77.10
8994;DHT22;4532;50.886;4.700;2024-03-25T06:48:06;6.20;77.10
8994;DHT22;4532;50.886;4.700;2024-03-25T06:50:33;6.30;77.20
8994;DHT22;4532;50.886;4.700;2024-03-25T06:53:03;6.40;77.30
8994;DHT22;4532;50.886;4.700;2024-03-25T06:55:29;6.40;77.20
8994;DHT22;4532;50.886;4.700;2024-03-25T06:57:56;6.50;77.30
8994;DHT22;4532;50.886;4.700;2024-03-25T07:00:22;6.50;77.30
8994;DHT22;4532;50.886;4.700;2024-03-25T07:02:48;6.50;77.30
8994;DHT22;4532;50.886;4.700;2024-03-25T07:05:15;6.60;77.40
8994;DHT22;4532;50.886;4.700;2024-03-25T07:07:43;6.60;77.30
8994;DHT22;4532;50.886;4.700;2024-03-25T07:10:10;6.70;77.50
8994;DHT22;4532;50.886;4.700;2024-03-25T07:12:36;6.70;77.50
8994;DHT22;4532;50.886;4.700;2024-03-25T07:15:02;6.80;77.50
8994;DHT22;4532;50.886;4.700;2024-03-25T07:17:28;6.80;77.50
8994;DHT22;4532;50.886;4.700;2024-03-25T07:19:55;6.90;77.60
8994;DHT22;4532;50.886;4.700;2024-03-25T07:22:21;6.90;77.50
8994;DHT22;4532;50.886;4.700;2024-03-25T07:24:52;7.00;77.70
8994;DHT22;4532;50.886;4.700;2024-03-25T07:27:21;7.00;77.70
8994;DHT22;4532;50.886;4.700;2024-03-25T07:29:47;7.10;77.80
8994;DHT22;4532;50.886;4.700;2024-03-25T07:32:17;7.10;77.80
8994;DHT22;4532;50.886;4.700;2024-03-25T07:34:43;7.20;77.80
8994;DHT22;4532;50.886;4.700;2024-03-25T07:37:12;7.20;77.90
8994;DHT22;4532;50.886;4.700;2024-03-25T07:39:42;7.30;78.00
8994;DHT22;4532;50.886;4.700;2024-03-25T07:42:11;7.40;78.00
8994;DHT22;4532;50.886;4.700;2024-03-25T07:44:37;7.40;78.00
8994;DHT22;4532;50.886;4.700;2024-03-25T07:47:04;7.50;78.10
8994;DHT22;4532;50.886;4.700;2024-03-25T07:49:32;7.60;78.20
8994;DHT22;4532;50.886;4.700;2024-03-25T07:52:00;7.60;78.20
8994;DHT22;4532;50.886;4.700;2024-03-25T07:54:26;7.70;78.20
8994;DHT22;4532;50.886;4.700;2024-03-25T07:56:55;7.80;78.30
8994;DHT22;4532;50.886;4.700;2024-03-25T07:59:24;7.90;78.40
8994;DHT22;4532;50.886;4.700;2024-03-25T08:01:50;8.00;78.40
8994;DHT22;4532;50.886;4.700;2024-03-25T08:04:16;8.00;78.30
8994;DHT22;4532;50.886;4.700;2024-03-25T08:06:42;8.10;78.50
8994;DHT22;4532;50.886;4.700;2024-03-25T08:09:08;8.20;78.40
8994;DHT22;4532;50.886;4.700;2024-03-25T08:11:35;8.30;78.60
8994;DHT22;4532;50.886;4.700;2024-03-25T08:14:04;8.30;78.50
8994;DHT22;4532;50.886;4.700;2024-03-25T08:16:31;8.40;78.60
8994;DHT22;4532;50.886;4.700;2024-03-25T08:18:57;8.50;78.60
8994;DHT22;4532;50.886;4.700;2024-03-25T08:21:23;8.60;78.70
8994;DHT22;4532;50.886;4.700;2024-03-25T08:23:49;8.70;78.80
8994;DHT22;4532;50.886;4.700;2024-03-25T08:26:15;8.70;78.70
8994;DHT22;4532;50.886;4.700;2024-03-25T08:28:44;8.80;78.70
8994;DHT22;4532;50.886;4.700;2024-03-25T08:31:11;8.90;78.80
8994;DHT22;4532;50.886;4.700;2024-03-25T08:33:37;8.90;78.70
8994;DHT22;4532;50.886;4.700;2024-03-25T08:36:03;9.00;78.70
8994;DHT22;4532;50.886;4.700;2024-03-25T08:38:29;9.00;78.80
8994;DHT22;4532;50.886;4.700;2024-03-25T08:41:00;9.10;78.90
8994;DHT22;4532;50.886;4.700;2024-03-25T08:43:29;9.10;78.90
8994;DHT22;4532;50.886;4.700;2024-03-25T08:45:55;9.20;78.90
8994;DHT22;4532;50.886;4.700;2024-03-25T08:48:25;9.30;78.90
8994;DHT22;4532;50.886;4.700;2024-03-25T08:50:51;9.30;78.90
8994;DHT22;4532;50.886;4.700;2024-03-25T08:53:22;9.40;79.00
8994;DHT22;4532;50.886;4.700;2024-03-25T08:55:51;9.40;78.90
8994;DHT22;4532;50.886;4.700;2024-03-25T08:58:17;9.50;79.00
8994;DHT22;4532;50.886;4.700;2024-03-25T09:00:46;9.50;79.00
8994;DHT22;4532;50.886;4.700;2024-03-25T09:03:12;9.50;78.90
8994;DHT22;4532;50.886;4.700;2024-03-25T09:05:43;9.60;78.90
8994;DHT22;4532;50.886;4.700;2024-03-25T09:08:12;9.60;79.00
8994;DHT22;4532;50.886;4.700;2024-03-25T09:10:39;9.70;79.00
8994;DHT22;4532;50.886;4.700;2024-03-25T09:13:23;9.70;79.00
8994;DHT22;4532;50.886;4.700;2024-03-25T09:15:50;9.70;79.00
8994;DHT22;4532;50.886;4.700;2024-03-25T09:18:16;9.80;79.00
8994;DHT22;4532;50.886;4.700;2024-03-25T09:20:46;9.80;79.00
8994;DHT22;4532;50.886;4.700;2024-03-25T09:23:15;9.80;79.00
8994;DHT22;4532;50.886;4.700;2024-03-25T09:25:51;9.90;79.00
8994;DHT22;4532;50.886;4.700;2024-03-25T09:28:18;9.90;79.10
8994;DHT22;4532;50.886;4.700;2024-03-25T09:30:44;9.90;79.00
8994;DHT22;4532;50.886;4.700;2024-03-25T09:33:12;10.00;79.20
8994;DHT22;4532;50.886;4.700;2024-03-25T09:35:41;10.00;79.20
8994;DHT22;4532;50.886;4.700;2024-03-25T09:38:10;10.10;79.20
8994;DHT22;4532;50.886;4.700;2024-03-25T09:40:46;10.10;79.20
8994;DHT22;4532;50.886;4.700;2024-03-25T09:43:19;10.10;79.10
8994;DHT22;4532;50.886;4.700;2024-03-25T09:45:49;10.20;79.10
8994;DHT22;4532;50.886;4.700;2024-03-25T09:48:18;10.20;79.00
8994;DHT22;4532;50.886;4.700;2024-03-25T09:50:47;10.20;79.80
8994;DHT22;4532;50.886;4.700;2024-03-25T09:53:17;10.30;79.00
8994;DHT22;4532;50.886;4.700;2024-03-25T09:55:47;10.40;79.00
8994;DHT22;4532;50.886;4.700;2024-03-25T09:58:18;10.40;79.00
8994;DHT22;4532;50.886;4.700;2024-03-25T10:00:45;10.40;78.90
8994;DHT22;4532;50.886;4.700;2024-03-25T10:03:19;10.40;79.00
8994;DHT22;4532;50.886;4.700;2024-03-25T10:05:47;10.50;79.00
8994;DHT22;4532;50.886;4.700;2024-03-25T10:08:19;10.50;79.00
8994;DHT22;4532;50.886;4.700;2024-03-25T10:10:45;10.50;79.00
8994;DHT22;4532;50.886;4.700;2024-03-25T10:13:12;10.60;79.00
8994;DHT22;4532;50.886;4.700;2024-03-25T10:15:38;10.60;79.00
8994;DHT22;4532;50.886;4.700;2024-03-25T10:18:09;10.60;79.00
8994;DHT22;4532;50.886;4.700;2024-03-25T10:20:37;10.70;79.00
8994;DHT22;4532;50.886;4.700;2024-03-25T10:23:03;10.70;79.00
8994;DHT22;4532;50.886;4.700;2024-03-25T10:25:32;10.80;79.00
8994;DHT22;4532;50.886;4.700;2024-03-25T10:27:59;10.80;79.00
8994;DHT22;4532;50.886;4.700;2024-03-25T10:30:29;10.90;79.10
8994;DHT22;4532;50.886;4.700;2024-03-25T10:35:32;10.90;79.00
8994;DHT22;4532;50.886;4.700;2024-03-25T10:38:00;11.00;79.20
8994;DHT22;4532;50.886;4.700;2024-03-25T10:40:34;11.00;79.10
8994;DHT22;4532;50.886;4.700;2024-03-25T10:43:20;11.10;79.20
8994;DHT22;4532;50.886;4.700;2024-03-25T10:45:51;11.10;79.20
8994;DHT22;4532;50.886;4.700;2024-03-25T10:48:27;11.20;79.10
8994;DHT22;4532;50.886;4.700;2024-03-25T10:50:58;11.20;79.20
8994;DHT22;4532;50.886;4.700;2024-03-25T10:53:27;11.20;79.10
8994;DHT22;4532;50.886;4.700;2024-03-25T10:55:55;11.30;79.20
8994;DHT22;4532;50.886;4.700;2024-03-25T10:58:22;11.40;79.30
8994;DHT22;4532;50.886;4.700;2024-03-25T11:00:52;11.40;79.20
8994;DHT22;4532;50.886;4.700;2024-03-25T11:03:22;11.50;79.30
8994;DHT22;4532;50.886;4.700;2024-03-25T11:05:49;11.50;79.20
8994;DHT22;4532;50.886;4.700;2024-03-25T11:08:16;11.60;79.30
8994;DHT22;4532;50.886;4.700;2024-03-25T11:10:44;11.60;79.20
8994;DHT22;4532;50.886;4.700;2024-03-25T11:13:14;11.60;79.10
8994;DHT22;4532;50.886;4.700;2024-03-25T11:15:47;11.70;79.10
8994;DHT22;4532;50.886;4.700;2024-03-25T11:18:17;11.80;79.20
8994;DHT22;4532;50.886;4.700;2024-03-25T11:20:44;11.80;79.10
8994;DHT22;4532;50.886;4.700;2024-03-25T11:23:11;11.90;79.00
8994;DHT22;4532;50.886;4.700;2024-03-25T11:25:41;11.90;79.10
8994;DHT22;4532;50.886;4.700;2024-03-25T11:28:10;11.90;78.80
8994;DHT22;4532;50.886;4.700;2024-03-25T11:30:41;12.00;78.90
8994;DHT22;4532;50.886;4.700;2024-03-25T11:33:07;12.00;79.00
8994;DHT22;4532;50.886;4.700;2024-03-25T11:35:39;12.10;79.00
8994;DHT22;4532;50.886;4.700;2024-03-25T11:38:08;12.10;78.90
8994;DHT22;4532;50.886;4.700;2024-03-25T11:40:35;12.10;78.80
8994;DHT22;4532;50.886;4.700;2024-03-25T11:43:04;12.20;78.90
8994;DHT22;4532;50.886;4.700;2024-03-25T11:45:31;12.20;78.90
8994;DHT22;4532;50.886;4.700;2024-03-25T11:48:00;12.30;78.80
8994;DHT22;4532;50.886;4.700;2024-03-25T11:50:26;12.30;78.70
8994;DHT22;4532;50.886;4.700;2024-03-25T11:52:55;12.30;78.70
8994;DHT22;4532;50.886;4.700;2024-03-25T11:55:21;12.40;78.60
8994;DHT22;4532;50.886;4.700;2024-03-25T11:57:55;12.40;78.50
8994;DHT22;4532;50.886;4.700;2024-03-25T12:00:24;12.50;78.50
8994;DHT22;4532;50.886;4.700;2024-03-25T12:02:51;12.50;78.60
8994;DHT22;4532;50.886;4.700;2024-03-25T12:05:18;12.50;78.40
8994;DHT22;4532;50.886;4.700;2024-03-25T12:07:45;12.50;78.50
8994;DHT22;4532;50.886;4.700;2024-03-25T12:10:11;12.50;78.30
8994;DHT22;4532;50.886;4.700;2024-03-25T12:12:56;12.60;78.10
8994;DHT22;4532;50.886;4.700;2024-03-25T12:15:25;12.60;78.20
8994;DHT22;4532;50.886;4.700;2024-03-25T12:17:52;12.60;78.10
8994;DHT22;4532;50.886;4.700;2024-03-25T12:20:21;12.60;78.10
8994;DHT22;4532;50.886;4.700;2024-03-25T12:22:49;12.70;78.30
8994;DHT22;4532;50.886;4.700;2024-03-25T12:25:19;12.70;78.00
8994;DHT22;4532;50.886;4.700;2024-03-25T12:27:46;12.70;77.90
8994;DHT22;4532;50.886;4.700;2024-03-25T12:30:19;12.70;77.90
8994;DHT22;4532;50.886;4.700;2024-03-25T12:32:45;12.70;77.90
8994;DHT22;4532;50.886;4.700;2024-03-25T12:35:15;12.70;77.90
8994;DHT22;4532;50.886;4.700;2024-03-25T12:37:52;12.80;78.00
8994;DHT22;4532;50.886;4.700;2024-03-25T12:40:28;12.80;77.80
8994;DHT22;4532;50.886;4.700;2024-03-25T12:42:56;12.80;77.50
8994;DHT22;4532;50.886;4.700;2024-03-25T12:45:22;12.80;77.50
8994;DHT22;4532;50.886;4.700;2024-03-25T12:47:52;12.90;77.70
8994;DHT22;4532;50.886;4.700;2024-03-25T12:50:18;12.90;77.70
8994;DHT22;4532;50.886;4.700;2024-03-25T12:52:52;12.90;77.80
8994;DHT22;4532;50.886;4.700;2024-03-25T12:55:23;13.00;78.60
8994;DHT22;4532;50.886;4.700;2024-03-25T12:57:49;13.00;77.80
8994;DHT22;4532;50.886;4.700;2024-03-25T13:00:18;13.00;77.70
8994;DHT22;4532;50.886;4.700;2024-03-25T13:02:47;13.10;77.60
8994;DHT22;4532;50.886;4.700;2024-03-25T13:05:13;13.10;77.70
8994;DHT22;4532;50.886;4.700;2024-03-25T13:07:42;13.20;77.70
8994;DHT22;4532;50.886;4.700;2024-03-25T13:10:10;13.20;77.60
8994;DHT22;4532;50.886;4.700;2024-03-25T13:12:39;13.20;77.50
8994;DHT22;4532;50.886;4.700;2024-03-25T13:15:10;13.20;77.60
8994;DHT22;4532;50.886;4.700;2024-03-25T13:17:36;13.30;77.70
8994;DHT22;4532;50.886;4.700;2024-03-25T13:20:03;13.30;77.50
8994;DHT22;4532;50.886;4.700;2024-03-25T13:22:32;13.30;77.40
8994;DHT22;4532;50.886;4.700;2024-03-25T13:24:59;13.40;77.20
8994;DHT22;4532;50.886;4.700;2024-03-25T13:27:27;13.40;77.30
8994;DHT22;4532;50.886;4.700;2024-03-25T13:29:54;13.50;77.30
8994;DHT22;4532;50.886;4.700;2024-03-25T13:32:25;13.50;77.20
8994;DHT22;4532;50.886;4.700;2024-03-25T13:34:51;13.50;77.10
8994;DHT22;4532;50.886;4.700;2024-03-25T13:37:22;13.50;76.80
8994;DHT22;4532;50.886;4.700;2024-03-25T13:39:51;13.50;77.20
8994;DHT22;4532;50.886;4.700;2024-03-25T13:42:19;13.50;77.00
8994;DHT22;4532;50.886;4.700;2024-03-25T13:44:45;13.60;77.20
8994;DHT22;4532;50.886;4.700;2024-03-25T13:47:18;13.60;77.00
8994;DHT22;4532;50.886;4.700;2024-03-25T13:49:47;13.70;77.20
8994;DHT22;4532;50.886;4.700;2024-03-25T13:52:13;13.70;77.00
8994;DHT22;4532;50.886;4.700;2024-03-25T13:54:42;13.80;77.00
8994;DHT22;4532;50.886;4.700;2024-03-25T13:57:08;13.80;77.10
8994;DHT22;4532;50.886;4.700;2024-03-25T13:59:37;13.80;76.80
8994;DHT22;4532;50.886;4.700;2024-03-25T14:02:05;13.90;76.80
8994;DHT22;4532;50.886;4.700;2024-03-25T14:04:34;13.90;76.80
8994;DHT22;4532;50.886;4.700;2024-03-25T14:07:00;13.90;76.90
8994;DHT22;4532;50.886;4.700;2024-03-25T14:09:27;13.90;76.50
8994;DHT22;4532;50.886;4.700;2024-03-25T14:11:54;13.90;76.50
8994;DHT22;4532;50.886;4.700;2024-03-25T14:14:22;13.90;76.20
8994;DHT22;4532;50.886;4.700;2024-03-25T14:16:51;13.90;76.30
8994;DHT22;4532;50.886;4.700;2024-03-25T14:19:20;14.00;76.20
8994;DHT22;4532;50.886;4.700;2024-03-25T14:21:48;14.00;77.10
8994;DHT22;4532;50.886;4.700;2024-03-25T14:24:21;14.00;75.80
8994;DHT22;4532;50.886;4.700;2024-03-25T14:26:47;14.00;76.20
8994;DHT22;4532;50.886;4.700;2024-03-25T14:29:13;14.00;76.20
8994;DHT22;4532;50.886;4.700;2024-03-25T14:31:40;14.00;75.60
8994;DHT22;4532;50.886;4.700;2024-03-25T14:34:08;14.10;76.20
8994;DHT22;4532;50.886;4.700;2024-03-25T14:36:35;14.10;75.90
8994;DHT22;4532;50.886;4.700;2024-03-25T14:39:01;14.10;76.00
8994;DHT22;4532;50.886;4.700;2024-03-25T14:41:38;14.10;76.00
8994;DHT22;4532;50.886;4.700;2024-03-25T14:44:09;14.10;76.00
8994;DHT22;4532;50.886;4.700;2024-03-25T14:46:38;14.10;75.90
8994;DHT22;4532;50.886;4.700;2024-03-25T14:49:09;14.20;76.00
8994;DHT22;4532;50.886;4.700;2024-03-25T14:51:35;14.20;76.10
8994;DHT22;4532;50.886;4.700;2024-03-25T14:54:02;14.20;76.00
8994;DHT22;4532;50.886;4.700;2024-03-25T14:56:31;14.30;75.90
8994;DHT22;4532;50.886;4.700;2024-03-25T14:58:58;14.30;75.90
8994;DHT22;4532;50.886;4.700;2024-03-25T15:01:31;14.30;75.90
8994;DHT22;4532;50.886;4.700;2024-03-25T15:04:09;14.40;75.70
8994;DHT22;4532;50.886;4.700;2024-03-25T15:06:35;14.40;75.70
8994;DHT22;4532;50.886;4.700;2024-03-25T15:09:06;14.40;75.70
8994;DHT22;4532;50.886;4.700;2024-03-25T15:11:32;14.50;75.70
8994;DHT22;4532;50.886;4.700;2024-03-25T15:13:59;14.40;75.60
8994;DHT22;4532;50.886;4.700;2024-03-25T15:16:25;14.50;75.50
8994;DHT22;4532;50.886;4.700;2024-03-25T15:18:53;14.60;75.50
8994;DHT22;4532;50.886;4.700;2024-03-25T15:21:20;14.60;75.60
8994;DHT22;4532;50.886;4.700;2024-03-25T15:23:46;14.60;75.20
8994;DHT22;4532;50.886;4.700;2024-03-25T15:26:12;14.70;75.50
8994;DHT22;4532;50.886;4.700;2024-03-25T15:28:41;14.70;75.40
8994;DHT22;4532;50.886;4.700;2024-03-25T15:31:10;14.70;75.30
8994;DHT22;4532;50.886;4.700;2024-03-25T15:33:36;14.70;75.10
8994;DHT22;4532;50.886;4.700;2024-03-25T15:36:02;14.70;75.10
8994;DHT22;4532;50.886;4.700;2024-03-25T15:38:31;14.80;75.00
8994;DHT22;4532;50.886;4.700;2024-03-25T15:40:57;14.80;74.90
8994;DHT22;4532;50.886;4.700;2024-03-25T15:43:25;14.80;75.00
8994;DHT22;4532;50.886;4.700;2024-03-25T15:45:55;14.80;75.00
8994;DHT22;4532;50.886;4.700;2024-03-25T15:48:24;14.80;74.60
8994;DHT22;4532;50.886;4.700;2024-03-25T15:50:51;14.80;74.60
8994;DHT22;4532;50.886;4.700;2024-03-25T15:53:17;14.80;74.60
8994;DHT22;4532;50.886;4.700;2024-03-25T15:55:44;14.80;74.10
8994;DHT22;4532;50.886;4.700;2024-03-25T15:58:13;14.80;74.70
8994;DHT22;4532;50.886;4.700;2024-03-25T16:00:39;14.80;74.50
8994;DHT22;4532;50.886;4.700;2024-03-25T16:03:06;14.80;74.20
8994;DHT22;4532;50.886;4.700;2024-03-25T16:05:34;14.80;74.30
8994;DHT22;4532;50.886;4.700;2024-03-25T16:08:03;14.80;73.20
8994;DHT22;4532;50.886;4.700;2024-03-25T16:10:35;14.80;73.70
8994;DHT22;4532;50.886;4.700;2024-03-25T16:13:04;14.80;73.60
8994;DHT22;4532;50.886;4.700;2024-03-25T16:15:31;14.80;73.40
8994;DHT22;4532;50.886;4.700;2024-03-25T16:17:57;14.80;73.60
8994;DHT22;4532;50.886;4.700;2024-03-25T16:20:32;14.80;73.60
8994;DHT22;4532;50.886;4.700;2024-03-25T16:22:59;14.80;73.20